createdAt,value
2022-10-25T00:06:54.661Z,98038.06
2022-10-25T00:26:57.976Z,98034.44
2022-10-25T00:47:00.629Z,98054.22
2022-10-25T01:07:03.170Z,98061.34
2022-10-25T01:27:10.090Z,98061.81
2022-10-25T01:47:12.740Z,98038.69
2022-10-25T02:07:15.442Z,98035.81
2022-10-25T02:27:18.065Z,98041.13
2022-10-25T02:47:20.563Z,98043.91
2022-10-25T03:07:23.268Z,98048.63
2022-10-25T03:27:25.862Z,98050.09
2022-10-25T03:47:28.450Z,98046.47
2022-10-25T04:07:31.169Z,98082.78
2022-10-25T04:27:33.925Z,98091.75
2022-10-25T04:47:36.598Z,98095.94
2022-10-25T05:07:39.258Z,98093.91
2022-10-25T05:27:41.892Z,98082.34
2022-10-25T05:47:44.836Z,98089.38
2022-10-25T06:07:47.472Z,98100.72
2022-10-25T06:27:50.161Z,98128.41
2022-10-25T06:47:52.789Z,98138.34
2022-10-25T07:07:55.591Z,98155.47
2022-10-25T07:27:58.096Z,98186.69
2022-10-25T07:48:00.587Z,98182.62
2022-10-25T08:08:03.860Z,98170.47
2022-10-25T08:28:06.404Z,98170.91
2022-10-25T08:48:09.938Z,98197.25
2022-10-25T09:08:12.626Z,98204.72
2022-10-25T09:28:15.221Z,98216.47
2022-10-25T09:48:18.026Z,98205.69
2022-10-25T10:08:20.663Z,98196.78
2022-10-25T10:28:23.358Z,98192.41
2022-10-25T10:48:25.838Z,98212.63
2022-10-25T11:08:28.611Z,98216.16
2022-10-25T11:28:31.274Z,98208.44
2022-10-25T11:48:34.084Z,98194.00
2022-10-25T12:08:36.761Z,98201.25
2022-10-25T12:28:39.360Z,98197.56
2022-10-25T12:48:41.942Z,98178.34
2022-10-25T13:08:44.665Z,98173.28
2022-10-25T13:28:47.393Z,98164.56
2022-10-25T13:48:50.034Z,98175.41
2022-10-25T14:08:52.737Z,98181.38
2022-10-25T14:28:55.468Z,98195.22
2022-10-25T14:48:58.143Z,98203.34
2022-10-25T15:09:36.996Z,98200.75
2022-10-25T15:29:23.506Z,98232.00
2022-10-25T15:49:26.078Z,98242.50
2022-10-25T16:09:28.557Z,98264.59
2022-10-25T16:29:31.243Z,98269.03
2022-10-25T16:49:34.046Z,98282.09
2022-10-25T17:09:36.515Z,98291.91
2022-10-25T17:29:39.309Z,98308.66
2022-10-25T17:49:41.995Z,98322.66
2022-10-25T18:09:44.577Z,98321.44
2022-10-25T18:29:47.027Z,98340.13
2022-10-25T18:49:50.403Z,98338.28
2022-10-25T19:09:53.076Z,98349.06
2022-10-25T19:29:55.792Z,98358.72
2022-10-25T19:49:58.267Z,98372.03
2022-10-25T20:10:00.986Z,98391.75
2022-10-25T20:30:03.803Z,98392.28
2022-10-25T20:50:06.422Z,98409.16
2022-10-25T21:10:09.017Z,98416.72
2022-10-25T21:30:11.865Z,98424.66
2022-10-25T21:50:14.398Z,98422.78
2022-10-25T22:10:17.082Z,98426.16
2022-10-25T22:30:19.654Z,98424.88
2022-10-25T23:11:00.339Z,98431.97
2022-10-25T23:31:02.921Z,98437.75
2022-10-25T23:51:05.594Z,98443.63
